KSFO/SFO METAR and TAF weather

Enter ICAO airport designator
Station Type Date Time Source
KSFO METAR 2022/06/25 22:56 UTC NOAA

KSFO 252256Z 31020KT 10SM FEW006 20/12 A2991 RMK AO2 PK WND 30029/2203 SLP128 T02000117


Station Type Date Time Source
KSFO Decoded METAR 2022/06/25 22:56 UTC NOAA

SAN FRANCISCO INTERNATIONAL AIRPORT , CA, United States (KSFO) 37-37N 122-22W 26M
Jun 25, 2022 - 06:56 PM EDT / 2022.06.25 2256 UTC
Wind: from the NW (310 degrees) at 23 MPH (20 KT):0
Visibility: 10 mile(s):0
Sky conditions: mostly clear
Temperature: 68.0 F (20.0 C)
Dew Point: 53.1 F (11.7 C)
Relative Humidity: 58%
Pressure (altimeter): 29.91 in. Hg (1012 hPa)
ob: KSFO 252256Z 31020KT 10SM FEW006 20/12 A2991 RMK AO2 PK WND 30029/2203 SLP128 T02000117
cycle: 23

Station Type Date Time Source
KSFO TAF 2022/06/25 21:36 UTC NOAA

TAF
AMD KSFO 252034Z 2521/2624 30017G23KT P6SM SKC
FM260500 29010KT P6SM SKC
FM260900 29007KT P6SM FEW009
TEMPO 2612/2615 SCT008
FM261600 29005KT P6SM SKC
FM262100 30018G24KT P6SM SKC

Example: see airport list